Time;durP1;ratioP1;P1;durP2;ratioP2;P2;SDS_P1;SDS_P2;PMS_P1;PMS_P2;Temp;Humidity;BMP_temperature;BMP_pressure;BME280_temperature;BME280_humidity;BME280_pressure;Samples;Min_cycle;Max_cycle;Signal;HPM_P1;HPM_P2
2022/06/28 00:02:17;;;;;;;13.57;8.00;;;;;;;;;;5051807;28;20035;-71
2022/06/28 00:04:43;;;;;;;12.63;7.50;;;;;;;;;;5049786;28;20031;-72
2022/06/28 00:07:09;;;;;;;11.70;7.57;;;;;;;;;;5050174;28;20069;-72
2022/06/28 00:09:35;;;;;;;14.48;7.30;;;;;;;;;;5050803;28;20029;-71
2022/06/28 00:12:01;;;;;;;16.40;8.25;;;;;;;;;;5050696;28;20048;-72
2022/06/28 00:17:11;;;;;;;14.98;7.75;;;;;;;;;;5049923;28;20551;-72
2022/06/28 00:19:37;;;;;;;15.13;7.97;;;;;;;;;;5050782;28;20033;-72
2022/06/28 00:22:03;;;;;;;17.20;7.38;;;;;;;;;;5050709;28;20079;-72
2022/06/28 00:24:30;;;;;;;14.02;7.22;;;;;;;;;;5050707;28;20108;-72
2022/06/28 00:26:56;;;;;;;15.38;6.90;;;;;;;;;;5050144;28;20025;-72
2022/06/28 00:29:22;;;;;;;13.00;6.55;;;;;;;;;;5050475;28;20031;-72
2022/06/28 00:31:48;;;;;;;16.17;7.30;;;;;;;;;;5050918;28;20021;-73
2022/06/28 00:34:14;;;;;;;16.38;7.13;;;;;;;;;;5050354;28;20032;-72
2022/06/28 00:36:40;;;;;;;13.38;7.63;;;;;;;;;;5067672;23;20045;-74
2022/06/28 00:39:06;;;;;;;11.55;6.88;;;;;;;;;;5056519;28;20028;-74
2022/06/28 00:41:34;;;;;;;12.98;7.97;;;;;;;;;;5053221;28;20032;-74
2022/06/28 00:44:00;;;;;;;14.38;8.43;;;;;;;;;;5055169;28;20017;-75
2022/06/28 00:46:26;;;;;;;12.93;7.95;;;;;;;;;;5055055;28;20025;-74
2022/06/28 00:48:52;;;;;;;16.48;9.02;;;;;;;;;;5053174;28;20112;-75
2022/06/28 00:51:18;;;;;;;15.52;8.82;;;;;;;;;;5051111;28;20032;-75
2022/06/28 00:53:44;;;;;;;16.20;8.93;;;;;;;;;;5054033;28;20108;-76
2022/06/28 00:56:10;;;;;;;17.52;8.98;;;;;;;;;;5052992;28;20032;-75
2022/06/28 00:58:36;;;;;;;20.27;9.63;;;;;;;;;;5055908;28;20025;-74
2022/06/28 01:01:02;;;;;;;15.07;9.30;;;;;;;;;;5055546;28;20017;-75
2022/06/28 01:03:29;;;;;;;13.82;8.70;;;;;;;;;;5055175;28;20029;-75
2022/06/28 01:05:55;;;;;;;21.75;11.07;;;;;;;;;;5058653;28;20028;-76
2022/06/28 01:08:21;;;;;;;18.70;10.40;;;;;;;;;;5058283;28;20021;-75
2022/06/28 01:10:47;;;;;;;21.63;11.32;;;;;;;;;;5056611;28;20027;-75
2022/06/28 01:13:13;;;;;;;20.55;11.15;;;;;;;;;;5055327;28;20045;-75
2022/06/28 01:15:41;;;;;;;21.27;10.57;;;;;;;;;;5054649;28;20067;-74
2022/06/28 01:18:07;;;;;;;19.90;10.65;;;;;;;;;;5060739;28;20033;-77
2022/06/28 01:20:33;;;;;;;18.88;10.85;;;;;;;;;;5059870;28;20029;-74
2022/06/28 01:23:00;;;;;;;21.40;11.27;;;;;;;;;;5055156;28;20389;-76
2022/06/28 01:25:26;;;;;;;19.25;10.85;;;;;;;;;;5054779;28;20488;-74
2022/06/28 01:27:52;;;;;;;21.35;10.77;;;;;;;;;;5054107;28;20029;-74
2022/06/28 01:30:19;;;;;;;18.60;11.45;;;;;;;;;;5055754;28;20028;-75
2022/06/28 01:32:45;;;;;;;21.08;11.95;;;;;;;;;;5054995;28;20307;-75
2022/06/28 01:35:12;;;;;;;21.70;11.55;;;;;;;;;;5054820;28;20108;-74
2022/06/28 01:37:38;;;;;;;19.38;10.52;;;;;;;;;;5054766;28;20037;-75
2022/06/28 01:40:04;;;;;;;24.42;10.63;;;;;;;;;;5054912;28;20029;-75
2022/06/28 01:42:31;;;;;;;20.75;12.10;;;;;;;;;;5054978;28;20025;-76
2022/06/28 01:44:57;;;;;;;16.63;9.93;;;;;;;;;;5054911;28;20025;-74
2022/06/28 01:47:24;;;;;;;17.85;10.60;;;;;;;;;;5054715;28;20041;-74
2022/06/28 01:49:50;;;;;;;16.13;11.00;;;;;;;;;;5055213;28;20025;-75
2022/06/28 01:52:16;;;;;;;21.67;11.73;;;;;;;;;;5053467;28;20029;-74
2022/06/28 01:54:43;;;;;;;18.83;12.02;;;;;;;;;;5055044;28;20103;-75
2022/06/28 01:57:09;;;;;;;21.50;13.13;;;;;;;;;;5053789;28;20266;-74
2022/06/28 01:59:36;;;;;;;23.35;14.15;;;;;;;;;;5054880;28;20021;-74
2022/06/28 02:02:02;;;;;;;22.55;16.02;;;;;;;;;;5057812;28;20025;-74
2022/06/28 02:04:29;;;;;;;30.23;18.85;;;;;;;;;;5060429;28;20068;-74
2022/06/28 02:06:56;;;;;;;28.63;18.20;;;;;;;;;;5054294;28;20017;-74
2022/06/28 02:09:22;;;;;;;32.53;19.48;;;;;;;;;;5054742;28;20100;-76
2022/06/28 02:11:48;;;;;;;32.28;19.85;;;;;;;;;;5054982;28;20021;-75
2022/06/28 02:14:14;;;;;;;25.23;18.00;;;;;;;;;;5055887;28;20315;-75
2022/06/28 02:16:40;;;;;;;32.20;21.38;;;;;;;;;;5061327;28;20043;-75
2022/06/28 02:19:06;;;;;;;31.42;19.85;;;;;;;;;;5061857;28;20024;-75
2022/06/28 02:21:39;;;;;;;30.75;20.35;;;;;;;;;;5054128;28;20040;-74
2022/06/28 02:24:06;;;;;;;29.98;21.05;;;;;;;;;;5054224;28;20036;-74
2022/06/28 02:26:32;;;;;;;32.47;21.70;;;;;;;;;;5052660;28;20419;-74
2022/06/28 02:29:02;;;;;;;26.73;19.77;;;;;;;;;;5054301;28;20028;-77
2022/06/28 02:31:28;;;;;;;31.23;18.77;;;;;;;;;;5053609;28;20026;-75
2022/06/28 02:33:54;;;;;;;29.25;20.25;;;;;;;;;;5056790;28;20070;-73
2022/06/28 02:41:43;;;;;;;24.55;16.65;;;;;;;;;;5055972;28;20025;-76
2022/06/28 02:44:10;;;;;;;29.20;18.48;;;;;;;;;;5054037;28;20074;-75
2022/06/28 02:46:36;;;;;;;25.15;17.55;;;;;;;;;;5053856;28;20043;-74
2022/06/28 02:49:01;;;;;;;25.05;17.05;;;;;;;;;;5054246;28;20021;-75
2022/06/28 02:51:27;;;;;;;25.58;17.33;;;;;;;;;;5054209;28;20055;-75
2022/06/28 02:53:53;;;;;;;29.23;16.10;;;;;;;;;;5052892;28;20120;-75
2022/06/28 02:56:20;;;;;;;21.88;14.85;;;;;;;;;;5052922;28;20021;-75
2022/06/28 02:58:46;;;;;;;24.55;15.38;;;;;;;;;;5055736;28;20036;-75
2022/06/28 03:01:12;;;;;;;22.83;14.50;;;;;;;;;;5057154;28;20397;-75
2022/06/28 03:03:38;;;;;;;22.70;15.77;;;;;;;;;;5058426;28;20028;-74
2022/06/28 03:06:04;;;;;;;24.70;14.88;;;;;;;;;;5055600;28;20036;-75
2022/06/28 03:08:30;;;;;;;23.27;14.63;;;;;;;;;;5052813;28;20480;-75
2022/06/28 03:10:56;;;;;;;22.98;14.38;;;;;;;;;;5053544;28;20029;-75
2022/06/28 03:13:22;;;;;;;22.40;12.75;;;;;;;;;;5053699;28;20021;-75
2022/06/28 03:15:49;;;;;;;23.15;13.82;;;;;;;;;;5052025;28;20021;-75
2022/06/28 03:18:14;;;;;;;18.35;13.00;;;;;;;;;;5054008;28;20033;-75
2022/06/28 03:20:40;;;;;;;25.33;13.57;;;;;;;;;;5054488;28;20083;-75
2022/06/28 03:23:06;;;;;;;20.23;12.07;;;;;;;;;;5054964;28;20025;-75
2022/06/28 03:25:32;;;;;;;23.25;12.10;;;;;;;;;;5056394;28;20116;-74
2022/06/28 03:27:58;;;;;;;17.60;12.15;;;;;;;;;;5063798;28;20043;-74
2022/06/28 03:30:24;;;;;;;23.20;12.20;;;;;;;;;;5063545;28;20021;-75
2022/06/28 03:32:50;;;;;;;16.83;13.15;;;;;;;;;;5064380;28;20032;-75
2022/06/28 03:35:16;;;;;;;18.98;12.07;;;;;;;;;;5055830;28;20035;-74
2022/06/28 03:37:42;;;;;;;22.00;12.27;;;;;;;;;;5052997;28;20108;-75
2022/06/28 03:40:09;;;;;;;22.20;13.25;;;;;;;;;;5052887;28;20029;-74
2022/06/28 03:42:36;;;;;;;18.88;12.30;;;;;;;;;;5051814;28;20117;-75
2022/06/28 03:45:02;;;;;;;17.10;12.02;;;;;;;;;;5050703;28;20116;-75
2022/06/28 03:47:28;;;;;;;24.02;12.88;;;;;;;;;;5052404;28;20013;-76
2022/06/28 03:49:54;;;;;;;26.13;13.98;;;;;;;;;;5056744;28;20054;-75
2022/06/28 03:52:28;;;;;;;17.92;12.30;;;;;;;;;;5056781;28;20057;-76
2022/06/28 03:54:54;;;;;;;21.80;12.82;;;;;;;;;;5058780;28;20430;-75
2022/06/28 03:57:20;;;;;;;24.95;15.13;;;;;;;;;;5052253;28;20122;-76
2022/06/28 03:59:46;;;;;;;16.98;12.75;;;;;;;;;;5055355;28;20025;-78
2022/06/28 04:02:12;;;;;;;25.30;14.05;;;;;;;;;;5053242;28;20088;-76
2022/06/28 04:04:38;;;;;;;24.65;14.88;;;;;;;;;;5053491;28;20029;-75
2022/06/28 04:07:04;;;;;;;22.27;15.15;;;;;;;;;;5053370;28;20021;-75
2022/06/28 04:09:30;;;;;;;26.25;14.70;;;;;;;;;;5053509;28;20055;-75
2022/06/28 04:11:56;;;;;;;23.70;14.90;;;;;;;;;;5054451;28;20017;-74
2022/06/28 04:14:22;;;;;;;30.08;16.75;;;;;;;;;;5060049;28;20418;-76
2022/06/28 04:16:48;;;;;;;22.45;14.45;;;;;;;;;;5059488;28;20490;-75
2022/06/28 04:19:14;;;;;;;20.85;12.77;;;;;;;;;;5061588;28;20085;-75
2022/06/28 04:21:40;;;;;;;22.00;14.93;;;;;;;;;;5059541;28;20033;-75
2022/06/28 04:24:06;;;;;;;21.00;15.43;;;;;;;;;;5055360;28;20071;-75
2022/06/28 04:26:32;;;;;;;31.27;17.88;;;;;;;;;;5054452;28;20021;-76
2022/06/28 04:28:58;;;;;;;32.42;18.60;;;;;;;;;;5051775;28;20055;-76
2022/06/28 04:31:24;;;;;;;26.15;17.58;;;;;;;;;;5051787;28;20033;-75
2022/06/28 04:33:50;;;;;;;33.47;17.48;;;;;;;;;;5054066;28;20029;-76
2022/06/28 04:36:16;;;;;;;32.53;17.92;;;;;;;;;;5056004;28;20025;-77
2022/06/28 04:38:42;;;;;;;26.00;16.48;;;;;;;;;;5053377;28;20017;-74
2022/06/28 04:41:08;;;;;;;25.95;15.73;;;;;;;;;;5057761;28;20036;-76
2022/06/28 04:43:34;;;;;;;31.75;17.50;;;;;;;;;;5056290;28;20100;-75
2022/06/28 04:46:00;;;;;;;26.95;16.42;;;;;;;;;;5062278;28;20029;-73
2022/06/28 04:48:26;;;;;;;26.52;18.23;;;;;;;;;;5061401;28;20024;-75
2022/06/28 04:50:52;;;;;;;31.20;18.58;;;;;;;;;;5056465;28;20068;-77
2022/06/28 04:53:18;;;;;;;27.70;17.55;;;;;;;;;;5055972;28;20024;-77
2022/06/28 04:55:44;;;;;;;23.02;15.52;;;;;;;;;;5055820;28;20104;-76
2022/06/28 04:58:10;;;;;;;25.40;17.35;;;;;;;;;;5057420;28;20109;-76
2022/06/28 05:00:36;;;;;;;40.25;26.17;;;;;;;;;;5061115;28;20064;-77
2022/06/28 05:03:02;;;;;;;23.83;15.68;;;;;;;;;;5060002;28;20025;-77
2022/06/28 05:05:28;;;;;;;30.55;17.15;;;;;;;;;;5054205;28;20150;-75
2022/06/28 05:07:54;;;;;;;26.27;17.52;;;;;;;;;;5056406;28;20040;-75
2022/06/28 05:10:20;;;;;;;30.40;18.02;;;;;;;;;;5056791;28;20033;-75
2022/06/28 05:12:46;;;;;;;26.08;17.05;;;;;;;;;;5055586;28;20027;-75
2022/06/28 05:15:12;;;;;;;25.52;18.08;;;;;;;;;;5058197;28;20025;-75
2022/06/28 05:17:38;;;;;;;26.40;18.52;;;;;;;;;;5057271;28;20031;-76
2022/06/28 05:20:04;;;;;;;27.63;17.88;;;;;;;;;;5057886;28;20401;-76
2022/06/28 05:22:30;;;;;;;23.55;17.50;;;;;;;;;;5058539;28;20466;-76
2022/06/28 05:24:56;;;;;;;27.60;16.50;;;;;;;;;;5058066;28;20025;-76
2022/06/28 05:27:22;;;;;;;30.13;17.88;;;;;;;;;;5058110;28;20477;-75
2022/06/28 05:29:47;;;;;;;23.52;16.55;;;;;;;;;;5062904;28;20158;-76
2022/06/28 05:32:13;;;;;;;24.95;19.02;;;;;;;;;;5064429;28;20132;-76
2022/06/28 05:34:40;;;;;;;24.40;16.58;;;;;;;;;;5061657;28;20035;-78
2022/06/28 05:37:07;;;;;;;29.52;18.35;;;;;;;;;;5055793;28;20082;-75
2022/06/28 05:39:33;;;;;;;26.85;17.40;;;;;;;;;;5056903;28;20021;-75
2022/06/28 05:41:59;;;;;;;30.58;18.00;;;;;;;;;;5057080;28;20029;-76
2022/06/28 05:44:25;;;;;;;23.60;17.27;;;;;;;;;;5057230;28;20025;-75
2022/06/28 05:46:51;;;;;;;24.70;16.05;;;;;;;;;;5055347;28;20033;-74
2022/06/28 05:49:18;;;;;;;22.25;16.92;;;;;;;;;;5057424;28;20021;-77
2022/06/28 05:51:44;;;;;;;26.55;15.00;;;;;;;;;;5056953;28;20017;-75
2022/06/28 05:54:10;;;;;;;25.20;16.23;;;;;;;;;;5057090;28;20021;-77
2022/06/28 05:56:36;;;;;;;19.23;13.18;;;;;;;;;;5055215;28;20031;-75
2022/06/28 05:59:04;;;;;;;21.40;14.65;;;;;;;;;;5055027;28;20025;-76
2022/06/28 06:01:30;;;;;;;28.27;14.70;;;;;;;;;;5054432;28;20021;-75
2022/06/28 06:03:57;;;;;;;22.30;13.38;;;;;;;;;;5054291;28;20082;-75
2022/06/28 06:06:24;;;;;;;20.33;13.23;;;;;;;;;;5054318;28;20563;-75
2022/06/28 06:08:51;;;;;;;16.88;11.63;;;;;;;;;;5055744;28;20021;-74
2022/06/28 06:11:17;;;;;;;17.88;11.52;;;;;;;;;;5056269;28;20018;-75
2022/06/28 06:13:43;;;;;;;19.58;12.65;;;;;;;;;;5070336;28;20104;-75
2022/06/28 06:16:09;;;;;;;16.80;11.95;;;;;;;;;;5056638;28;20064;-74
2022/06/28 06:18:35;;;;;;;18.58;12.10;;;;;;;;;;5054994;28;20474;-75
2022/06/28 06:21:01;;;;;;;20.92;12.48;;;;;;;;;;5055295;28;20025;-74
2022/06/28 06:23:27;;;;;;;16.13;11.23;;;;;;;;;;5054766;28;20025;-77
2022/06/28 06:25:53;;;;;;;22.27;12.00;;;;;;;;;;5055406;28;20091;-73
2022/06/28 06:28:19;;;;;;;21.65;11.93;;;;;;;;;;5057288;28;20059;-74
2022/06/28 06:30:45;;;;;;;19.45;11.32;;;;;;;;;;5058489;28;20041;-74
2022/06/28 06:33:11;;;;;;;20.35;13.43;;;;;;;;;;5053762;28;20025;-74
2022/06/28 06:35:37;;;;;;;23.50;12.68;;;;;;;;;;5054263;28;20025;-75
2022/06/28 06:38:03;;;;;;;18.55;11.82;;;;;;;;;;5054915;28;20028;-74
2022/06/28 06:40:31;;;;;;;18.15;12.75;;;;;;;;;;5076444;23;20029;-74
2022/06/28 06:42:57;;;;;;;23.83;13.07;;;;;;;;;;5052259;28;20083;-74
2022/06/28 06:45:24;;;;;;;25.48;13.52;;;;;;;;;;5052788;28;20056;-76
2022/06/28 06:47:50;;;;;;;26.58;15.35;;;;;;;;;;5053481;28;20025;-74
2022/06/28 06:50:16;;;;;;;41.75;17.23;;;;;;;;;;5053572;28;20029;-74
2022/06/28 06:52:42;;;;;;;24.98;14.45;;;;;;;;;;5053601;28;20025;-74
2022/06/28 06:55:09;;;;;;;20.48;11.98;;;;;;;;;;5053351;28;20100;-74
2022/06/28 06:57:36;;;;;;;15.73;10.80;;;;;;;;;;5053428;28;20056;-75
2022/06/28 07:00:02;;;;;;;18.40;12.15;;;;;;;;;;5053409;28;20469;-74
2022/06/28 07:02:28;;;;;;;19.48;10.98;;;;;;;;;;5035246;28;20036;-74
2022/06/28 07:04:54;;;;;;;25.35;11.32;;;;;;;;;;5052884;28;20390;-75
2022/06/28 07:07:20;;;;;;;16.95;11.68;;;;;;;;;;5034966;28;20029;-74
2022/06/28 07:09:46;;;;;;;19.73;11.23;;;;;;;;;;5052911;28;20040;-75
2022/06/28 07:12:12;;;;;;;20.35;10.38;;;;;;;;;;5034894;28;20088;-77
2022/06/28 07:14:37;;;;;;;18.95;9.55;;;;;;;;;;5052830;28;20159;-75
2022/06/28 07:17:04;;;;;;;15.25;9.15;;;;;;;;;;5052951;28;20087;-75
2022/06/28 07:19:29;;;;;;;14.98;8.20;;;;;;;;;;5052724;28;20427;-75
2022/06/28 07:21:55;;;;;;;22.50;11.15;;;;;;;;;;5052417;28;20021;-75
2022/06/28 07:24:21;;;;;;;13.07;7.97;;;;;;;;;;5052720;28;20637;-74
2022/06/28 07:26:49;;;;;;;21.50;10.20;;;;;;;;;;5052438;28;20031;-75
2022/06/28 07:29:15;;;;;;;20.02;7.65;;;;;;;;;;5052522;28;20017;-74
2022/06/28 07:31:41;;;;;;;16.65;9.18;;;;;;;;;;5052328;28;20430;-75
2022/06/28 07:34:08;;;;;;;14.90;7.72;;;;;;;;;;5052046;28;20031;-74
2022/06/28 07:36:34;;;;;;;17.63;7.90;;;;;;;;;;5052013;28;20597;-74
2022/06/28 07:39:00;;;;;;;13.48;6.43;;;;;;;;;;5052227;28;20021;-75
2022/06/28 07:41:26;;;;;;;12.88;6.00;;;;;;;;;;5052395;28;20037;-75
2022/06/28 07:43:52;;;;;;;18.50;8.95;;;;;;;;;;5052367;28;20099;-73
2022/06/28 07:46:18;;;;;;;23.92;11.32;;;;;;;;;;5034377;28;20517;-74
2022/06/28 07:48:44;;;;;;;17.35;7.15;;;;;;;;;;5052097;28;20025;-74
2022/06/28 07:53:55;;;;;;;15.18;6.78;;;;;;;;;;5052231;28;20031;-75
2022/06/28 07:56:21;;;;;;;17.65;5.57;;;;;;;;;;5051970;28;20393;-75
2022/06/28 07:58:47;;;;;;;9.57;4.57;;;;;;;;;;5056146;28;20025;-74
2022/06/28 08:01:13;;;;;;;8.77;4.00;;;;;;;;;;5061275;28;20028;-75
2022/06/28 08:03:39;;;;;;;11.80;4.10;;;;;;;;;;5065580;28;20025;-75
2022/06/28 08:06:05;;;;;;;14.38;4.30;;;;;;;;;;5057363;28;20025;-75
2022/06/28 08:08:31;;;;;;;11.10;4.25;;;;;;;;;;5051695;28;20103;-75
2022/06/28 08:10:57;;;;;;;12.48;4.95;;;;;;;;;;5051590;28;20106;-74
2022/06/28 08:13:23;;;;;;;10.02;3.55;;;;;;;;;;5052133;28;20029;-75
2022/06/28 08:15:49;;;;;;;10.25;3.88;;;;;;;;;;5058247;28;20032;-74
2022/06/28 08:18:15;;;;;;;9.52;3.63;;;;;;;;;;5058713;28;20024;-74
2022/06/28 08:20:41;;;;;;;15.52;3.78;;;;;;;;;;5059069;28;20084;-75
2022/06/28 08:23:07;;;;;;;11.15;3.10;;;;;;;;;;5059195;28;20079;-76
2022/06/28 08:25:34;;;;;;;9.50;2.47;;;;;;;;;;5041719;28;20454;-74
2022/06/28 08:28:00;;;;;;;14.40;3.03;;;;;;;;;;5042790;28;20025;-75
2022/06/28 08:30:27;;;;;;;10.85;2.50;;;;;;;;;;5066531;28;20048;-75
2022/06/28 08:32:53;;;;;;;10.70;2.22;;;;;;;;;;5066727;28;20017;-75
2022/06/28 08:35:19;;;;;;;12.23;2.92;;;;;;;;;;5070314;28;20035;-75
2022/06/28 08:37:45;;;;;;;7.15;2.85;;;;;;;;;;5069977;28;20035;-75
2022/06/28 08:40:11;;;;;;;11.73;2.53;;;;;;;;;;5066695;28;20025;-74
2022/06/28 08:42:39;;;;;;;13.52;3.03;;;;;;;;;;5065745;28;20036;-76
2022/06/28 08:45:05;;;;;;;11.95;2.05;;;;;;;;;;5065536;28;20104;-75
2022/06/28 08:47:32;;;;;;;9.30;2.50;;;;;;;;;;5063697;28;20025;-75
2022/06/28 08:50:01;;;;;;;9.15;2.40;;;;;;;;;;5064998;28;20111;-75
2022/06/28 08:52:27;;;;;;;6.80;2.08;;;;;;;;;;5062424;28;20036;-74
2022/06/28 08:54:53;;;;;;;7.13;2.03;;;;;;;;;;5040445;28;20668;-75
2022/06/28 08:57:20;;;;;;;8.88;1.83;;;;;;;;;;5040361;28;20021;-76
2022/06/28 08:59:47;;;;;;;6.57;1.67;;;;;;;;;;5061266;28;20029;-76
2022/06/28 09:02:14;;;;;;;5.22;1.60;;;;;;;;;;5060157;28;20032;-75
2022/06/28 09:04:45;;;;;;;12.23;2.08;;;;;;;;;;5061914;28;20100;-76
2022/06/28 09:07:11;;;;;;;9.02;1.80;;;;;;;;;;5060935;28;20036;-74
2022/06/28 09:09:37;;;;;;;12.27;1.70;;;;;;;;;;5061821;28;20100;-75
2022/06/28 09:12:03;;;;;;;7.60;1.98;;;;;;;;;;5060242;28;20056;-76
2022/06/28 09:14:31;;;;;;;9.18;2.05;;;;;;;;;;5060037;28;20075;-76
2022/06/28 09:16:58;;;;;;;7.20;1.60;;;;;;;;;;5058970;28;20029;-76
2022/06/28 09:19:34;;;;;;;7.88;2.15;;;;;;;;;;5058095;28;20025;-75
2022/06/28 09:22:01;;;;;;;13.27;1.92;;;;;;;;;;5057993;28;20033;-76
2022/06/28 09:24:26;;;;;;;5.57;1.23;;;;;;;;;;5058019;28;20041;-75
2022/06/28 09:26:54;;;;;;;5.80;1.48;;;;;;;;;;5055624;28;20101;-75
2022/06/28 09:29:20;;;;;;;5.32;1.30;;;;;;;;;;5054994;28;20021;-75
2022/06/28 09:31:46;;;;;;;2.72;0.82;;;;;;;;;;5036819;28;20039;-76
2022/06/28 09:34:13;;;;;;;7.55;1.35;;;;;;;;;;5054791;28;20572;-75
2022/06/28 09:36:41;;;;;;;4.10;1.35;;;;;;;;;;5037016;28;20032;-74
2022/06/28 09:39:10;;;;;;;5.38;1.65;;;;;;;;;;5054767;28;20465;-74
2022/06/28 09:41:36;;;;;;;5.57;1.50;;;;;;;;;;5054771;28;20036;-76
2022/06/28 09:44:07;;;;;;;7.15;1.88;;;;;;;;;;5055159;28;20021;-75
2022/06/28 09:46:33;;;;;;;4.50;1.50;;;;;;;;;;5054656;28;20466;-76
2022/06/28 09:49:07;;;;;;;5.55;1.50;;;;;;;;;;5054225;28;20446;-74
2022/06/28 09:51:34;;;;;;;4.45;1.35;;;;;;;;;;5054176;28;20017;-75
2022/06/28 09:54:03;;;;;;;5.75;1.40;;;;;;;;;;5054566;28;20091;-75
2022/06/28 09:56:31;;;;;;;3.92;1.30;;;;;;;;;;5054593;28;20017;-76
2022/06/28 09:58:57;;;;;;;5.13;1.60;;;;;;;;;;5057273;28;20027;-75
2022/06/28 10:01:23;;;;;;;3.13;1.10;;;;;;;;;;5055530;28;20032;-74
2022/06/28 10:03:50;;;;;;;4.95;1.25;;;;;;;;;;5056041;28;20025;-75
2022/06/28 10:06:16;;;;;;;5.35;1.13;;;;;;;;;;5038959;28;20108;-75
2022/06/28 10:08:42;;;;;;;4.70;1.40;;;;;;;;;;5056015;28;20025;-75
2022/06/28 10:11:10;;;;;;;4.55;1.35;;;;;;;;;;5054420;28;20021;-75
2022/06/28 10:16:43;;;;;;;7.05;2.13;;;;;;;;;;5054429;28;20137;-74
2022/06/28 10:19:10;;;;;;;6.90;1.38;;;;;;;;;;5054531;28;20013;-75
2022/06/28 10:22:08;;;;;;;7.43;1.27;;;;;;;;;;5033911;28;20466;-75
2022/06/28 10:24:50;;;;;;;8.00;4.07;;;;;;;;;;5033716;28;20377;-74
2022/06/28 10:27:16;;;;;;;7.97;1.52;;;;;;;;;;5050789;28;20032;-75
2022/06/28 10:30:00;;;;;;;6.32;1.60;;;;;;;;;;5052862;28;20028;-75
2022/06/28 10:32:45;;;;;;;8.50;1.17;;;;;;;;;;5052094;28;20017;-75
2022/06/28 10:35:31;;;;;;;3.97;1.15;;;;;;;;;;5051940;28;20048;-75
2022/06/28 10:38:09;;;;;;;3.55;1.00;;;;;;;;;;5049487;28;20028;-75
2022/06/28 10:40:38;;;;;;;5.95;1.00;;;;;;;;;;5054843;28;20033;-75
2022/06/28 10:43:05;;;;;;;4.22;1.08;;;;;;;;;;5051404;28;20029;-75
2022/06/28 10:45:49;;;;;;;4.68;1.10;;;;;;;;;;5051333;28;20422;-74
2022/06/28 10:48:15;;;;;;;3.38;1.10;;;;;;;;;;5050811;28;20021;-76
2022/06/28 10:51:01;;;;;;;6.30;2.65;;;;;;;;;;5049939;28;20021;-75
2022/06/28 10:53:27;;;;;;;3.08;1.90;;;;;;;;;;5034062;28;20017;-75
2022/06/28 10:56:12;;;;;;;3.47;1.20;;;;;;;;;;5051040;28;20094;-74
2022/06/28 10:58:55;;;;;;;6.07;1.77;;;;;;;;;;5051301;28;20025;-74
2022/06/28 11:01:41;;;;;;;8.13;1.75;;;;;;;;;;5050678;28;20469;-74
2022/06/28 11:04:28;;;;;;;5.10;1.40;;;;;;;;;;5051636;28;20031;-74
2022/06/28 11:06:55;;;;;;;7.18;1.30;;;;;;;;;;5050614;28;20025;-75
2022/06/28 11:09:28;;;;;;;7.95;1.67;;;;;;;;;;5052035;28;20025;-74
2022/06/28 11:12:10;;;;;;;3.58;1.20;;;;;;;;;;5051420;28;20091;-75
2022/06/28 11:14:45;;;;;;;4.25;1.08;;;;;;;;;;5051321;28;20476;-75
2022/06/28 11:17:34;;;;;;;4.88;1.38;;;;;;;;;;5051414;28;20029;-75
2022/06/28 11:20:02;;;;;;;7.30;1.30;;;;;;;;;;5039789;28;20096;-75
2022/06/28 11:22:48;;;;;;;5.78;1.23;;;;;;;;;;5057021;28;20092;-75
2022/06/28 11:25:15;;;;;;;5.78;1.50;;;;;;;;;;5056562;28;20025;-74
2022/06/28 11:27:52;;;;;;;6.65;1.88;;;;;;;;;;5056591;28;20080;-74
2022/06/28 11:30:18;;;;;;;7.80;1.33;;;;;;;;;;5064646;28;20001;-75
2022/06/28 11:32:45;;;;;;;5.63;1.70;;;;;;;;;;5069294;28;20041;-74
2022/06/28 11:35:11;;;;;;;5.07;1.10;;;;;;;;;;5056227;28;20033;-76
2022/06/28 11:37:51;;;;;;;6.15;1.45;;;;;;;;;;5062836;28;20033;-75
2022/06/28 11:40:17;;;;;;;5.60;1.40;;;;;;;;;;5057039;28;20033;-75
2022/06/28 11:42:44;;;;;;;5.72;1.25;;;;;;;;;;5061455;28;20033;-76
2022/06/28 11:45:11;;;;;;;8.32;1.00;;;;;;;;;;5052609;28;20028;-75
2022/06/28 11:47:40;;;;;;;7.88;2.08;;;;;;;;;;5034234;28;20031;-75
2022/06/28 11:50:11;;;;;;;8.43;2.45;;;;;;;;;;5051965;28;20025;-77
2022/06/28 11:52:45;;;;;;;7.78;1.35;;;;;;;;;;5052347;28;20211;-74
2022/06/28 11:55:11;;;;;;;8.57;1.58;;;;;;;;;;5052227;28;20040;-75
2022/06/28 11:57:39;;;;;;;8.40;1.50;;;;;;;;;;5052271;28;20442;-75
2022/06/28 12:00:06;;;;;;;8.43;1.48;;;;;;;;;;5052644;28;20028;-74
2022/06/28 12:02:55;;;;;;;5.13;1.00;;;;;;;;;;5052499;28;20152;-76
2022/06/28 12:05:28;;;;;;;9.68;1.52;;;;;;;;;;5034381;28;20029;-76
2022/06/28 12:07:54;;;;;;;6.70;1.27;;;;;;;;;;5053337;28;20025;-75
2022/06/28 12:10:21;;;;;;;6.72;1.40;;;;;;;;;;5053757;28;20082;-76
2022/06/28 12:12:47;;;;;;;4.35;1.20;;;;;;;;;;5054260;28;20029;-75
2022/06/28 12:15:13;;;;;;;12.50;5.63;;;;;;;;;;5035606;28;20375;-76
2022/06/28 12:17:47;;;;;;;8.52;4.80;;;;;;;;;;5053965;28;20025;-76
2022/06/28 12:20:14;;;;;;;7.38;3.00;;;;;;;;;;5036126;28;20370;-76
2022/06/28 12:22:40;;;;;;;8.65;3.30;;;;;;;;;;5052392;28;20033;-76
2022/06/28 12:25:10;;;;;;;9.35;3.50;;;;;;;;;;5052553;28;20033;-76
2022/06/28 12:27:37;;;;;;;5.05;1.90;;;;;;;;;;5052418;28;20045;-76
2022/06/28 12:30:04;;;;;;;7.82;1.20;;;;;;;;;;5052808;28;20063;-77
2022/06/28 12:32:30;;;;;;;6.22;1.33;;;;;;;;;;5053140;28;20104;-77
2022/06/28 12:35:00;;;;;;;5.90;1.40;;;;;;;;;;5053047;28;20033;-76
2022/06/28 12:37:27;;;;;;;6.80;1.80;;;;;;;;;;5057725;28;20009;-78
2022/06/28 12:39:53;;;;;;;6.88;1.35;;;;;;;;;;5075978;28;20033;-76
2022/06/28 12:42:19;;;;;;;3.47;1.13;;;;;;;;;;5061684;28;20029;-76
2022/06/28 12:44:45;;;;;;;5.32;1.20;;;;;;;;;;5053037;28;20037;-77
2022/06/28 12:47:11;;;;;;;2.83;1.10;;;;;;;;;;5052314;28;20021;-76
2022/06/28 12:49:38;;;;;;;6.18;1.10;;;;;;;;;;5052205;28;20440;-75
2022/06/28 12:52:04;;;;;;;5.13;1.30;;;;;;;;;;5034552;28;20091;-75
2022/06/28 12:54:30;;;;;;;3.42;1.30;;;;;;;;;;5052320;28;20021;-74
2022/06/28 12:56:56;;;;;;;7.05;1.42;;;;;;;;;;5034403;28;20517;-75
2022/06/28 12:59:22;;;;;;;4.05;1.25;;;;;;;;;;5052040;28;20017;-75
2022/06/28 13:01:48;;;;;;;4.80;1.27;;;;;;;;;;5055585;28;20036;-75
2022/06/28 13:04:15;;;;;;;4.03;0.95;;;;;;;;;;5057085;28;20044;-75
2022/06/28 13:06:44;;;;;;;11.68;1.40;;;;;;;;;;5059230;28;20028;-75
2022/06/28 13:09:14;;;;;;;7.85;1.25;;;;;;;;;;5041337;28;20094;-75
2022/06/28 13:11:41;;;;;;;4.28;1.73;;;;;;;;;;5044628;28;20017;-75
2022/06/28 13:14:07;;;;;;;5.78;2.22;;;;;;;;;;5068324;28;20044;-75
2022/06/28 13:16:34;;;;;;;3.97;2.13;;;;;;;;;;5056128;28;20497;-76
2022/06/28 13:19:00;;;;;;;3.75;1.42;;;;;;;;;;5055189;28;20033;-75
2022/06/28 13:21:25;;;;;;;5.90;2.35;;;;;;;;;;5055997;28;20044;-76
2022/06/28 13:23:51;;;;;;;4.53;1.45;;;;;;;;;;5056114;28;20032;-74
2022/06/28 13:26:17;;;;;;;7.85;1.60;;;;;;;;;;5054980;28;20103;-77
2022/06/28 13:28:43;;;;;;;5.95;1.25;;;;;;;;;;5055552;28;20071;-75
2022/06/28 13:31:09;;;;;;;3.70;1.20;;;;;;;;;;5055407;28;20036;-75
2022/06/28 13:33:36;;;;;;;3.50;1.20;;;;;;;;;;5055770;28;20082;-75
2022/06/28 13:36:02;;;;;;;4.13;1.35;;;;;;;;;;5055134;28;20076;-76
2022/06/28 13:38:28;;;;;;;5.10;1.38;;;;;;;;;;5055363;28;20025;-75
2022/06/28 13:40:55;;;;;;;5.55;1.33;;;;;;;;;;5037184;28;20501;-76
2022/06/28 13:43:34;;;;;;;6.32;2.28;;;;;;;;;;5055060;28;20044;-75
2022/06/28 13:46:07;;;;;;;3.90;1.05;;;;;;;;;;5054440;28;20035;-75
2022/06/28 13:48:33;;;;;;;5.70;1.50;;;;;;;;;;5055230;28;20048;-76
2022/06/28 13:50:59;;;;;;;4.70;1.33;;;;;;;;;;5052060;28;20406;-76
2022/06/28 13:53:25;;;;;;;6.47;1.27;;;;;;;;;;5054551;28;20354;-77
2022/06/28 13:55:52;;;;;;;6.30;1.60;;;;;;;;;;5036222;28;20025;-76
2022/06/28 13:58:18;;;;;;;3.95;1.50;;;;;;;;;;5058145;28;20088;-75
2022/06/28 14:00:44;;;;;;;6.97;1.80;;;;;;;;;;5071245;28;20021;-76
2022/06/28 14:03:10;;;;;;;3.53;1.58;;;;;;;;;;5075022;28;20028;-75
2022/06/28 14:05:37;;;;;;;7.22;1.40;;;;;;;;;;5077661;28;20024;-74
2022/06/28 14:08:03;;;;;;;6.53;1.52;;;;;;;;;;5078618;28;20079;-77
2022/06/28 14:10:29;;;;;;;6.88;1.50;;;;;;;;;;5078924;28;20061;-76
2022/06/28 14:12:56;;;;;;;6.15;1.85;;;;;;;;;;5056667;28;20041;-77
2022/06/28 14:15:22;;;;;;;4.20;1.50;;;;;;;;;;5064054;28;20078;-77
2022/06/28 14:17:48;;;;;;;7.47;1.40;;;;;;;;;;5061925;28;20036;-77
2022/06/28 14:20:14;;;;;;;11.57;4.18;;;;;;;;;;5061396;28;20114;-76
2022/06/28 14:22:41;;;;;;;6.88;2.30;;;;;;;;;;5059983;28;20389;-78
2022/06/28 14:25:07;;;;;;;6.13;1.45;;;;;;;;;;5054612;28;20499;-75
2022/06/28 14:27:33;;;;;;;5.20;2.00;;;;;;;;;;5051730;28;20107;-75
2022/06/28 14:29:59;;;;;;;4.65;1.85;;;;;;;;;;5053105;28;20109;-75
2022/06/28 14:32:25;;;;;;;5.78;1.80;;;;;;;;;;5053342;28;20021;-75
2022/06/28 14:34:51;;;;;;;8.32;1.90;;;;;;;;;;5035718;28;20029;-75
2022/06/28 14:37:17;;;;;;;4.72;1.63;;;;;;;;;;5053101;28;20043;-75
2022/06/28 14:39:43;;;;;;;5.03;1.60;;;;;;;;;;5053692;28;20113;-76
2022/06/28 14:42:09;;;;;;;7.35;2.17;;;;;;;;;;5035851;28;20029;-75
2022/06/28 14:44:35;;;;;;;6.88;1.88;;;;;;;;;;5053461;28;20090;-75